createdAt,value
2017-12-08T00:00:14.483Z,8.3
2017-12-08T00:00:40.594Z,8.3
2017-12-08T00:01:06.712Z,8.33
2017-12-08T00:01:32.834Z,8.28
2017-12-08T00:01:58.946Z,8.2
2017-12-08T00:02:25.062Z,8.18
2017-12-08T00:02:51.182Z,8.26
2017-12-08T00:03:17.294Z,8.27
2017-12-08T00:03:43.412Z,8.28
2017-12-08T00:04:09.530Z,8.33
2017-12-08T00:04:35.645Z,8.27
2017-12-08T00:05:01.764Z,8.24
2017-12-08T00:05:27.876Z,8.3
2017-12-08T00:05:54.012Z,8.27
2017-12-08T00:06:20.131Z,8.31
2017-12-08T00:06:46.244Z,8.31
2017-12-08T00:07:12.360Z,8.24
2017-12-08T00:07:38.478Z,8.16
2017-12-08T00:08:04.587Z,8.12
2017-12-08T00:08:30.711Z,8.16
2017-12-08T00:08:56.813Z,8.15
2017-12-08T00:09:22.934Z,8.1
2017-12-08T00:09:49.045Z,8.09
2017-12-08T00:10:15.169Z,8.1
2017-12-08T00:10:41.284Z,8.08
2017-12-08T00:11:07.396Z,8.2
2017-12-08T00:11:33.514Z,8.16
2017-12-08T00:11:59.652Z,8.18
2017-12-08T00:12:25.771Z,8.3
2017-12-08T00:12:51.887Z,8.18
2017-12-08T00:13:18.005Z,8
2017-12-08T00:13:44.142Z,8
2017-12-08T00:14:10.256Z,7.98
2017-12-08T00:14:36.374Z,7.97
2017-12-08T00:15:02.491Z,8.05
2017-12-08T00:15:28.607Z,8.05
2017-12-08T00:15:54.721Z,8.09
2017-12-08T00:16:20.835Z,8.1
2017-12-08T00:16:46.953Z,8.12
2017-12-08T00:17:13.084Z,8.13
2017-12-08T00:17:39.205Z,8.1
2017-12-08T00:18:05.322Z,8.18
2017-12-08T00:18:31.434Z,8.12
2017-12-08T00:18:57.547Z,8.15
2017-12-08T00:19:23.661Z,8.1
2017-12-08T00:19:49.771Z,8.06
2017-12-08T00:20:15.890Z,8.03
2017-12-08T00:20:42.002Z,7.97
2017-12-08T00:21:08.141Z,8.12
2017-12-08T00:21:34.277Z,7.98
2017-12-08T00:22:00.392Z,7.98
2017-12-08T00:22:26.502Z,7.98
2017-12-08T00:22:52.626Z,7.94
2017-12-08T00:23:18.739Z,7.98
2017-12-08T00:23:44.850Z,8
2017-12-08T00:24:10.972Z,7.97
2017-12-08T00:24:37.085Z,8.03
2017-12-08T00:25:03.199Z,8.01
2017-12-08T00:25:29.314Z,8.05
2017-12-08T00:25:55.427Z,8
2017-12-08T00:26:21.548Z,7.93
2017-12-08T00:26:47.680Z,7.88
2017-12-08T00:27:13.799Z,7.88
2017-12-08T00:27:39.909Z,7.93
2017-12-08T00:28:06.027Z,7.91
2017-12-08T00:28:32.139Z,7.94
2017-12-08T00:28:58.258Z,7.95
2017-12-08T00:29:24.372Z,7.93
2017-12-08T00:29:50.492Z,7.97
2017-12-08T00:30:16.608Z,8
2017-12-08T00:30:42.722Z,7.95
2017-12-08T00:31:08.840Z,8.03
2017-12-08T00:31:34.955Z,7.93
2017-12-08T00:32:01.072Z,7.95
2017-12-08T00:32:27.181Z,8.03
2017-12-08T00:32:53.295Z,8.06
2017-12-08T00:33:19.414Z,8.05
2017-12-08T00:33:45.550Z,8.05
2017-12-08T00:34:11.667Z,8.01
2017-12-08T00:34:37.780Z,8.01
2017-12-08T00:35:03.894Z,8
2017-12-08T00:35:30.014Z,8.03
2017-12-08T00:35:56.130Z,7.94
2017-12-08T00:36:22.242Z,7.98
2017-12-08T00:36:48.362Z,7.95
2017-12-08T00:37:14.478Z,7.94
2017-12-08T00:37:40.589Z,7.98
2017-12-08T00:38:06.708Z,8
2017-12-08T00:38:32.819Z,8.03
2017-12-08T00:38:58.933Z,8
2017-12-08T00:39:25.046Z,7.94
2017-12-08T00:39:51.166Z,7.91
2017-12-08T00:40:17.277Z,7.91
2017-12-08T00:40:43.417Z,7.95
2017-12-08T00:41:09.537Z,8.06
2017-12-08T00:41:35.649Z,8
2017-12-08T00:42:01.765Z,7.95
2017-12-08T00:42:27.897Z,7.97
2017-12-08T00:42:54.016Z,7.95
2017-12-08T00:43:20.126Z,8
2017-12-08T00:43:46.246Z,8.01
2017-12-08T00:44:12.362Z,8.06
2017-12-08T00:44:38.479Z,8
2017-12-08T00:45:04.594Z,8
2017-12-08T00:45:30.708Z,7.93
2017-12-08T00:45:56.823Z,7.93
2017-12-08T00:46:22.940Z,7.95
2017-12-08T00:46:49.058Z,7.91
2017-12-08T00:47:15.171Z,8.05
2017-12-08T00:47:41.288Z,7.97
2017-12-08T00:48:07.402Z,7.95
2017-12-08T00:48:33.520Z,7.94
2017-12-08T00:48:59.633Z,7.95
2017-12-08T00:49:25.746Z,7.95
2017-12-08T00:49:51.866Z,7.97
2017-12-08T00:50:17.979Z,7.9
2017-12-08T00:50:44.114Z,7.77
2017-12-08T00:51:10.226Z,7.87
2017-12-08T00:51:36.346Z,7.93
2017-12-08T00:52:02.463Z,7.9
2017-12-08T00:52:28.573Z,7.93
2017-12-08T00:52:54.692Z,7.9
2017-12-08T00:53:20.812Z,7.91
2017-12-08T00:53:46.930Z,7.83
2017-12-08T00:54:13.039Z,7.8
2017-12-08T00:54:39.176Z,7.83
2017-12-08T00:55:05.288Z,7.75
2017-12-08T00:55:31.403Z,7.8
2017-12-08T00:55:57.517Z,7.79
2017-12-08T00:56:23.650Z,7.76
2017-12-08T00:56:49.765Z,7.77
2017-12-08T00:57:15.885Z,7.67
2017-12-08T00:57:41.998Z,7.73
2017-12-08T00:58:08.113Z,7.87
2017-12-08T00:58:34.249Z,7.85
2017-12-08T00:59:00.368Z,7.82
2017-12-08T00:59:26.483Z,7.8
2017-12-08T00:59:52.602Z,7.82
2017-12-08T01:00:18.713Z,7.87
2017-12-08T01:00:44.830Z,7.83
2017-12-08T01:01:10.944Z,7.73
2017-12-08T01:01:37.058Z,7.85
2017-12-08T01:02:03.174Z,7.9
2017-12-08T01:02:29.295Z,7.8
2017-12-08T01:02:55.410Z,7.72
2017-12-08T01:03:21.524Z,7.69
2017-12-08T01:03:47.635Z,7.76
2017-12-08T01:04:13.772Z,7.67
2017-12-08T01:04:39.884Z,7.67
2017-12-08T01:05:06.003Z,7.67
2017-12-08T01:05:32.116Z,7.67
2017-12-08T01:05:58.230Z,7.67
2017-12-08T01:06:24.352Z,7.67
2017-12-08T01:06:50.481Z,7.72
2017-12-08T01:07:16.603Z,7.7
2017-12-08T01:07:42.720Z,7.63
2017-12-08T01:08:08.831Z,7.69
2017-12-08T01:08:34.950Z,7.58
2017-12-08T01:09:01.062Z,7.67
2017-12-08T01:09:27.176Z,7.63
2017-12-08T01:09:53.312Z,7.72
2017-12-08T01:10:19.429Z,7.6
2017-12-08T01:10:45.541Z,7.57
2017-12-08T01:11:11.656Z,7.57
2017-12-08T01:11:37.775Z,7.66
2017-12-08T01:12:03.908Z,7.69
2017-12-08T01:12:30.019Z,7.6
2017-12-08T01:12:56.140Z,7.6
2017-12-08T01:13:22.273Z,7.67
2017-12-08T01:13:48.384Z,7.61
2017-12-08T01:14:14.503Z,7.7
2017-12-08T01:14:40.624Z,7.72
2017-12-08T01:15:06.773Z,7.72
2017-12-08T01:15:32.895Z,7.66
2017-12-08T01:15:59.009Z,7.61
2017-12-08T01:16:25.124Z,7.58
2017-12-08T01:16:51.241Z,7.53
2017-12-08T01:17:17.360Z,7.56
2017-12-08T01:17:43.468Z,7.51
2017-12-08T01:18:09.592Z,7.67
2017-12-08T01:18:35.706Z,7.58
2017-12-08T01:19:01.829Z,7.61
2017-12-08T01:19:27.940Z,7.63
2017-12-08T01:19:54.048Z,7.51
2017-12-08T01:20:20.165Z,7.51
2017-12-08T01:20:46.306Z,7.53
2017-12-08T01:21:12.440Z,7.48
2017-12-08T01:21:38.549Z,7.57
2017-12-08T01:22:04.669Z,7.48
2017-12-08T01:22:30.781Z,7.48
2017-12-08T01:22:56.898Z,7.5
2017-12-08T01:23:23.018Z,7.47
2017-12-08T01:23:49.153Z,7.51
2017-12-08T01:24:15.267Z,7.38
2017-12-08T01:24:41.384Z,7.42
2017-12-08T01:25:07.498Z,7.43
2017-12-08T01:25:33.611Z,7.45
2017-12-08T01:25:59.721Z,7.47
2017-12-08T01:26:25.841Z,7.38
2017-12-08T01:26:51.958Z,7.47
2017-12-08T01:27:18.073Z,7.43
2017-12-08T01:27:44.183Z,7.4
2017-12-08T01:28:10.302Z,7.42
2017-12-08T01:28:36.423Z,7.43
2017-12-08T01:29:02.535Z,7.42
2017-12-08T01:29:28.652Z,7.36
2017-12-08T01:29:54.764Z,7.35
2017-12-08T01:30:20.885Z,7.4
2017-12-08T01:30:46.998Z,7.45
2017-12-08T01:31:13.109Z,7.42
2017-12-08T01:31:39.228Z,7.39
2017-12-08T01:32:05.364Z,7.43
2017-12-08T01:32:31.493Z,7.38
2017-12-08T01:32:57.608Z,7.38
2017-12-08T01:33:23.726Z,7.4
2017-12-08T01:33:49.835Z,7.42
2017-12-08T01:34:15.955Z,7.28
2017-12-08T01:34:42.073Z,7.24
2017-12-08T01:35:08.183Z,7.29
2017-12-08T01:35:34.304Z,7.28
2017-12-08T01:36:00.413Z,7.25
2017-12-08T01:36:26.525Z,7.28
2017-12-08T01:36:52.645Z,7.32
2017-12-08T01:37:18.775Z,7.29
2017-12-08T01:37:44.893Z,7.32
2017-12-08T01:38:11.012Z,7.25
2017-12-08T01:38:37.122Z,7.32
2017-12-08T01:39:03.264Z,7.29
2017-12-08T01:39:29.381Z,7.28
2017-12-08T01:39:55.492Z,7.29
2017-12-08T01:40:21.603Z,7.24
2017-12-08T01:40:47.718Z,7.35
2017-12-08T01:41:13.854Z,7.25
2017-12-08T01:41:39.973Z,7.36
2017-12-08T01:42:06.112Z,7.38
2017-12-08T01:42:32.230Z,7.25
2017-12-08T01:42:58.342Z,7.39
2017-12-08T01:43:24.458Z,7.28
2017-12-08T01:43:50.567Z,7.28
2017-12-08T01:44:16.686Z,7.15
2017-12-08T01:44:42.807Z,7.32
2017-12-08T01:45:08.944Z,7.28
2017-12-08T01:45:35.056Z,7.24
2017-12-08T01:46:01.197Z,7.29
2017-12-08T01:46:27.306Z,7.23
2017-12-08T01:46:53.419Z,7.17
2017-12-08T01:47:19.538Z,7.21
2017-12-08T01:47:45.650Z,7.17
2017-12-08T01:48:11.773Z,7.28
2017-12-08T01:48:37.882Z,7.25
2017-12-08T01:49:03.997Z,7.18
2017-12-08T01:49:30.132Z,7.15
2017-12-08T01:49:56.242Z,7.18
2017-12-08T01:50:22.358Z,7.18
2017-12-08T01:50:48.477Z,7.17
2017-12-08T01:51:14.588Z,7.23
2017-12-08T01:51:40.706Z,7.13
2017-12-08T01:52:06.818Z,7.2
2017-12-08T01:52:32.961Z,7.21
2017-12-08T01:52:59.074Z,7.2
2017-12-08T01:53:25.191Z,7.24
2017-12-08T01:53:51.310Z,7.17
2017-12-08T01:54:17.420Z,7.18
2017-12-08T01:54:43.539Z,7.18
2017-12-08T01:55:09.650Z,7.18
2017-12-08T01:55:35.771Z,7.18
2017-12-08T01:56:01.880Z,7.17
2017-12-08T01:56:27.994Z,7.17
2017-12-08T01:56:54.115Z,7.17
2017-12-08T01:57:20.295Z,7.15
2017-12-08T01:57:46.365Z,7.14
2017-12-08T01:58:12.471Z,7.24
2017-12-08T01:58:38.587Z,7.21
2017-12-08T01:59:04.705Z,7.21
2017-12-08T01:59:30.821Z,7.07
2017-12-08T01:59:56.936Z,7.1
2017-12-08T02:00:23.054Z,7.06
2017-12-08T02:00:49.169Z,7.13
2017-12-08T02:01:15.279Z,7.11
2017-12-08T02:01:41.394Z,7.11
2017-12-08T02:02:07.511Z,7.13
2017-12-08T02:02:33.620Z,7.13
2017-12-08T02:02:59.735Z,7.18
2017-12-08T02:03:25.873Z,7.14
2017-12-08T02:03:51.987Z,7.18
2017-12-08T02:04:18.102Z,7.2
2017-12-08T02:04:44.211Z,7.13
2017-12-08T02:05:10.322Z,7.14
2017-12-08T02:05:36.438Z,7.14
2017-12-08T02:06:02.548Z,7.21
2017-12-08T02:06:28.664Z,7.21
2017-12-08T02:06:54.777Z,7.24
2017-12-08T02:07:20.900Z,7.17
2017-12-08T02:07:47.006Z,7.18
2017-12-08T02:08:13.123Z,7.14
2017-12-08T02:08:39.233Z,7.17
2017-12-08T02:09:05.346Z,7.15
2017-12-08T02:09:31.464Z,7.1
2017-12-08T02:09:57.571Z,7.14
2017-12-08T02:10:23.682Z,7.07
2017-12-08T02:10:49.796Z,7.13
2017-12-08T02:11:15.921Z,7.2
2017-12-08T02:11:42.021Z,7.23
2017-12-08T02:12:08.133Z,7.18
2017-12-08T02:12:34.246Z,7.15
2017-12-08T02:13:00.364Z,7.07
2017-12-08T02:13:26.484Z,7.17
2017-12-08T02:13:52.593Z,7.13
2017-12-08T02:14:18.717Z,7.2
2017-12-08T02:14:44.856Z,7.21
2017-12-08T02:15:10.969Z,7.24
2017-12-08T02:15:37.083Z,7.1
2017-12-08T02:16:03.214Z,7.05
2017-12-08T02:16:29.333Z,7.1
2017-12-08T02:16:55.447Z,7.06
2017-12-08T02:17:21.558Z,7.06
2017-12-08T02:17:47.675Z,7.07
2017-12-08T02:18:13.813Z,7.17
2017-12-08T02:18:39.923Z,7.07
2017-12-08T02:19:06.046Z,7.06
2017-12-08T02:19:32.158Z,7.15
2017-12-08T02:19:58.276Z,7.06
2017-12-08T02:20:24.387Z,7.21
2017-12-08T02:20:50.509Z,7.18
2017-12-08T02:21:16.625Z,7.06
2017-12-08T02:21:42.738Z,7.1
2017-12-08T02:22:08.856Z,6.96
2017-12-08T02:22:34.961Z,7.02
2017-12-08T02:23:01.100Z,6.99
2017-12-08T02:23:27.230Z,7.05
2017-12-08T02:23:53.342Z,7.05
2017-12-08T02:24:19.458Z,6.99
2017-12-08T02:24:45.569Z,6.99
2017-12-08T02:25:11.682Z,7
2017-12-08T02:25:37.801Z,6.97
2017-12-08T02:26:03.921Z,6.99
2017-12-08T02:26:30.033Z,7.06
2017-12-08T02:26:56.172Z,7.06
2017-12-08T02:27:22.279Z,7.13
2017-12-08T02:27:48.390Z,7.1
2017-12-08T02:28:14.510Z,7.11
2017-12-08T02:28:40.618Z,7.06
2017-12-08T02:29:06.752Z,7.1
2017-12-08T02:29:32.870Z,6.97
2017-12-08T02:29:58.988Z,6.95
2017-12-08T02:30:25.106Z,6.97
2017-12-08T02:30:51.218Z,6.99
2017-12-08T02:31:17.328Z,6.97
2017-12-08T02:31:43.444Z,6.96
2017-12-08T02:32:09.552Z,6.99
2017-12-08T02:32:35.662Z,6.92
2017-12-08T02:33:01.781Z,6.95
2017-12-08T02:33:27.896Z,6.82
2017-12-08T02:33:54.011Z,6.77
2017-12-08T02:34:20.141Z,6.87
2017-12-08T02:34:46.257Z,6.78
2017-12-08T02:35:12.388Z,6.81
2017-12-08T02:35:38.501Z,6.77
2017-12-08T02:36:04.616Z,6.78
2017-12-08T02:36:30.736Z,6.88
2017-12-08T02:36:56.865Z,6.79
2017-12-08T02:37:22.977Z,6.78
2017-12-08T02:37:49.092Z,6.77
2017-12-08T02:38:15.201Z,6.74
2017-12-08T02:38:41.320Z,6.84
2017-12-08T02:39:07.436Z,6.81
2017-12-08T02:39:33.545Z,6.78
2017-12-08T02:39:59.665Z,6.82
2017-12-08T02:40:25.774Z,6.87
2017-12-08T02:40:51.888Z,6.77
2017-12-08T02:41:18.004Z,6.81
2017-12-08T02:41:44.121Z,6.87
2017-12-08T02:42:10.229Z,6.81
2017-12-08T02:42:36.342Z,6.75
2017-12-08T02:43:02.506Z,6.72
2017-12-08T02:43:28.591Z,6.81
2017-12-08T02:43:54.728Z,6.7
2017-12-08T02:44:20.869Z,6.75
2017-12-08T02:44:46.988Z,6.59
2017-12-08T02:45:13.146Z,6.74
2017-12-08T02:45:39.252Z,6.72
2017-12-08T02:46:05.370Z,6.6
2017-12-08T02:46:31.482Z,6.72
2017-12-08T02:46:57.621Z,6.79
2017-12-08T02:47:23.736Z,6.7
2017-12-08T02:47:49.849Z,6.77
2017-12-08T02:48:15.962Z,6.75
2017-12-08T02:48:42.076Z,6.67
2017-12-08T02:49:08.184Z,6.7
2017-12-08T02:49:34.302Z,6.72
2017-12-08T02:50:00.420Z,6.7
2017-12-08T02:50:26.534Z,6.72
2017-12-08T02:50:52.654Z,6.78
2017-12-08T02:51:18.786Z,6.7
2017-12-08T02:51:44.901Z,6.77
2017-12-08T02:52:11.020Z,6.81
2017-12-08T02:52:37.125Z,6.78
2017-12-08T02:53:03.260Z,6.82
2017-12-08T02:53:29.390Z,6.78
2017-12-08T02:53:55.505Z,6.77
2017-12-08T02:54:21.618Z,6.75
2017-12-08T02:54:47.730Z,6.81
2017-12-08T02:55:13.855Z,6.69
2017-12-08T02:55:39.983Z,6.72
2017-12-08T02:56:06.090Z,6.75
2017-12-08T02:56:32.202Z,6.7
2017-12-08T02:56:58.320Z,6.74
2017-12-08T02:57:24.432Z,6.72
2017-12-08T02:57:50.545Z,6.6
2017-12-08T02:58:16.659Z,6.74
2017-12-08T02:58:42.775Z,6.57
2017-12-08T02:59:08.914Z,6.7
2017-12-08T02:59:35.023Z,6.74
2017-12-08T03:00:01.136Z,6.7
2017-12-08T03:00:27.256Z,6.7
2017-12-08T03:00:53.372Z,6.79
2017-12-08T03:01:19.479Z,6.72
2017-12-08T03:01:45.597Z,6.63
2017-12-08T03:02:11.705Z,6.6
2017-12-08T03:02:37.821Z,6.72
2017-12-08T03:03:03.955Z,6.75
2017-12-08T03:03:30.064Z,6.72
2017-12-08T03:03:56.178Z,6.6
2017-12-08T03:04:22.293Z,6.74
2017-12-08T03:04:48.406Z,6.6
2017-12-08T03:05:14.522Z,6.6
2017-12-08T03:05:40.658Z,6.59
2017-12-08T03:06:06.768Z,6.72
2017-12-08T03:06:32.880Z,6.72
2017-12-08T03:06:59.005Z,6.74
2017-12-08T03:07:25.132Z,6.77
2017-12-08T03:07:51.242Z,6.78
2017-12-08T03:08:17.355Z,6.84
2017-12-08T03:08:43.472Z,6.84
2017-12-08T03:09:09.587Z,6.81
2017-12-08T03:09:35.717Z,6.78
2017-12-08T03:10:01.854Z,6.74
2017-12-08T03:10:27.963Z,6.77
2017-12-08T03:10:54.075Z,6.74
2017-12-08T03:11:20.186Z,6.75
2017-12-08T03:11:46.298Z,6.85
2017-12-08T03:12:12.412Z,6.78
2017-12-08T03:12:38.526Z,6.79
2017-12-08T03:13:04.663Z,6.79
2017-12-08T03:13:30.783Z,6.79
2017-12-08T03:13:56.891Z,6.79
2017-12-08T03:14:23.015Z,6.78
2017-12-08T03:14:49.131Z,6.79
2017-12-08T03:15:15.240Z,6.74
2017-12-08T03:15:41.353Z,6.77
2017-12-08T03:16:07.486Z,6.78
2017-12-08T03:16:33.578Z,6.74
2017-12-08T03:16:59.689Z,6.81
2017-12-08T03:17:25.810Z,6.67
2017-12-08T03:17:51.919Z,6.79
2017-12-08T03:18:18.030Z,6.79
2017-12-08T03:18:44.146Z,6.81
2017-12-08T03:19:10.258Z,6.88
2017-12-08T03:19:36.376Z,6.78
2017-12-08T03:20:02.485Z,6.78
2017-12-08T03:20:28.598Z,6.74
2017-12-08T03:20:54.714Z,6.72
2017-12-08T03:21:20.826Z,6.77
2017-12-08T03:21:46.944Z,6.74
2017-12-08T03:22:13.077Z,6.7
2017-12-08T03:22:39.186Z,6.81
2017-12-08T03:23:05.304Z,6.75
2017-12-08T03:23:31.420Z,6.82
2017-12-08T03:23:57.533Z,6.78
2017-12-08T03:24:23.649Z,6.87
2017-12-08T03:24:49.759Z,6.78
2017-12-08T03:25:15.876Z,6.72
2017-12-08T03:25:41.985Z,6.74
2017-12-08T03:26:08.116Z,6.7
2017-12-08T03:26:34.234Z,6.75
2017-12-08T03:27:00.370Z,6.82
2017-12-08T03:27:26.479Z,6.75
2017-12-08T03:27:52.599Z,6.78
2017-12-08T03:28:18.713Z,6.77
2017-12-08T03:28:44.822Z,6.77
2017-12-08T03:29:10.939Z,6.79
2017-12-08T03:29:37.050Z,6.77
2017-12-08T03:30:03.167Z,6.96
2017-12-08T03:30:29.300Z,6.85
2017-12-08T03:30:55.413Z,6.85
2017-12-08T03:31:21.534Z,6.88
2017-12-08T03:31:47.646Z,6.93
2017-12-08T03:32:13.765Z,6.96
2017-12-08T03:32:39.880Z,6.96
2017-12-08T03:33:06.018Z,6.95
2017-12-08T03:33:32.132Z,6.97
2017-12-08T03:33:58.253Z,6.93
2017-12-08T03:34:24.382Z,6.87
2017-12-08T03:34:50.495Z,6.85
2017-12-08T03:35:16.617Z,6.89
2017-12-08T03:35:42.727Z,6.89
2017-12-08T03:36:08.839Z,6.88
2017-12-08T03:36:34.952Z,6.79
2017-12-08T03:37:01.066Z,6.87
2017-12-08T03:37:27.183Z,7.02
2017-12-08T03:37:53.297Z,6.89
2017-12-08T03:38:19.413Z,6.81
2017-12-08T03:38:45.528Z,6.89
2017-12-08T03:39:11.640Z,6.99
2017-12-08T03:39:37.757Z,6.96
2017-12-08T03:40:03.892Z,7
2017-12-08T03:40:30.005Z,6.97
2017-12-08T03:40:56.120Z,7.14
2017-12-08T03:41:22.228Z,6.99
2017-12-08T03:41:48.341Z,7.14
2017-12-08T03:42:14.480Z,7.14
2017-12-08T03:42:40.592Z,7.1
2017-12-08T03:43:06.705Z,7.13
2017-12-08T03:43:32.819Z,7.1
2017-12-08T03:43:58.932Z,7.05
2017-12-08T03:44:25.049Z,7.05
2017-12-08T03:44:51.159Z,7
2017-12-08T03:45:17.274Z,7.06
2017-12-08T03:45:43.409Z,7.15
2017-12-08T03:46:09.525Z,7.11
2017-12-08T03:46:35.634Z,6.96
2017-12-08T03:47:01.748Z,6.97
2017-12-08T03:47:27.866Z,7.06
2017-12-08T03:47:53.974Z,7.02
2017-12-08T03:48:20.095Z,7.05
2017-12-08T03:48:46.208Z,7.11
2017-12-08T03:49:12.318Z,7.03
2017-12-08T03:49:38.432Z,7.13
2017-12-08T03:50:04.547Z,6.96
2017-12-08T03:50:30.658Z,6.96
2017-12-08T03:50:56.775Z,6.95
2017-12-08T03:51:22.882Z,6.99
2017-12-08T03:51:48.992Z,7.03
2017-12-08T03:52:15.113Z,7
2017-12-08T03:52:41.226Z,6.93
2017-12-08T03:53:07.337Z,6.95
2017-12-08T03:53:33.451Z,7
2017-12-08T03:53:59.569Z,6.88
2017-12-08T03:54:25.679Z,6.87
2017-12-08T03:54:51.787Z,6.89
2017-12-08T03:55:17.923Z,6.92
2017-12-08T03:55:44.039Z,6.84
2017-12-08T03:56:10.152Z,6.75
2017-12-08T03:56:36.270Z,6.75
2017-12-08T03:57:02.377Z,6.72
2017-12-08T03:57:28.494Z,6.78
2017-12-08T03:57:54.607Z,6.81
2017-12-08T03:58:20.725Z,6.7
2017-12-08T03:58:46.841Z,6.77
2017-12-08T03:59:12.957Z,6.75
2017-12-08T03:59:39.063Z,6.74
2017-12-08T04:00:05.177Z,6.78
2017-12-08T04:00:31.287Z,6.75
2017-12-08T04:00:57.404Z,6.78
2017-12-08T04:01:23.517Z,6.85
2017-12-08T04:01:49.632Z,6.84
2017-12-08T04:02:15.750Z,6.79
2017-12-08T04:02:41.859Z,6.88
2017-12-08T04:03:07.976Z,6.77
2017-12-08T04:03:34.092Z,6.87
2017-12-08T04:04:00.207Z,6.77
2017-12-08T04:04:26.321Z,6.77
2017-12-08T04:04:52.432Z,6.75
2017-12-08T04:05:18.546Z,6.84
2017-12-08T04:05:44.664Z,6.85
2017-12-08T04:06:10.773Z,6.93
2017-12-08T04:06:36.911Z,6.78
2017-12-08T04:07:03.025Z,6.62
2017-12-08T04:07:29.135Z,6.74
2017-12-08T04:07:55.273Z,6.78
2017-12-08T04:08:21.385Z,6.88
2017-12-08T04:08:47.501Z,6.88
2017-12-08T04:09:13.611Z,6.81
2017-12-08T04:09:39.732Z,6.79
2017-12-08T04:10:05.841Z,6.75
2017-12-08T04:10:31.957Z,6.79
2017-12-08T04:10:58.070Z,6.75
2017-12-08T04:11:24.178Z,6.7
2017-12-08T04:11:50.296Z,6.7
2017-12-08T04:12:16.409Z,6.81
2017-12-08T04:12:42.519Z,6.77
2017-12-08T04:13:08.631Z,6.88
2017-12-08T04:13:34.749Z,6.78
2017-12-08T04:14:00.857Z,6.78
2017-12-08T04:14:26.969Z,6.87
2017-12-08T04:14:53.082Z,6.81
2017-12-08T04:15:19.196Z,6.84
2017-12-08T04:15:45.307Z,6.84
2017-12-08T04:16:11.428Z,6.75
2017-12-08T04:16:37.535Z,6.77
2017-12-08T04:17:03.654Z,6.84
2017-12-08T04:17:29.768Z,6.82
2017-12-08T04:17:55.877Z,6.88
2017-12-08T04:18:21.992Z,6.77
2017-12-08T04:18:48.124Z,6.77
2017-12-08T04:19:14.238Z,6.84
2017-12-08T04:19:40.350Z,6.74
2017-12-08T04:20:06.459Z,6.77
2017-12-08T04:20:32.574Z,6.81
2017-12-08T04:20:58.688Z,6.84
2017-12-08T04:21:24.806Z,6.88
2017-12-08T04:21:50.919Z,6.87
2017-12-08T04:22:17.039Z,6.85
2017-12-08T04:22:43.148Z,6.95
2017-12-08T04:23:09.270Z,6.96
2017-12-08T04:23:35.380Z,6.96
2017-12-08T04:24:01.500Z,6.96
2017-12-08T04:24:27.616Z,6.92
2017-12-08T04:24:53.734Z,6.96
2017-12-08T04:25:19.858Z,6.99
2017-12-08T04:25:45.979Z,6.97
2017-12-08T04:26:12.093Z,6.99
2017-12-08T04:26:38.203Z,6.92
2017-12-08T04:27:04.336Z,6.97
2017-12-08T04:27:30.456Z,6.99
2017-12-08T04:27:56.572Z,6.99
2017-12-08T04:28:22.683Z,6.96
2017-12-08T04:28:48.823Z,7
2017-12-08T04:29:14.932Z,6.92
2017-12-08T04:29:41.053Z,6.81
2017-12-08T04:30:07.163Z,6.88
2017-12-08T04:30:33.277Z,6.88
2017-12-08T04:30:59.394Z,6.81
2017-12-08T04:31:25.505Z,6.74
2017-12-08T04:31:51.619Z,6.81
2017-12-08T04:32:17.738Z,6.81
2017-12-08T04:32:43.848Z,6.75
2017-12-08T04:33:09.963Z,6.85
2017-12-08T04:33:36.073Z,6.81
2017-12-08T04:34:02.186Z,6.82
2017-12-08T04:34:28.304Z,6.79
2017-12-08T04:34:54.414Z,6.79
2017-12-08T04:35:20.536Z,6.78
2017-12-08T04:35:46.647Z,6.85
2017-12-08T04:36:12.759Z,6.85
2017-12-08T04:36:38.871Z,6.85
2017-12-08T04:37:04.986Z,6.92
2017-12-08T04:37:31.096Z,6.79
2017-12-08T04:37:57.214Z,6.89
2017-12-08T04:38:23.326Z,6.84
2017-12-08T04:38:49.440Z,6.74
2017-12-08T04:39:15.551Z,6.81
2017-12-08T04:39:41.663Z,6.85
2017-12-08T04:40:07.778Z,6.78
2017-12-08T04:40:33.907Z,6.82
2017-12-08T04:41:00.025Z,6.77
2017-12-08T04:41:26.143Z,6.74
2017-12-08T04:41:52.261Z,6.85
2017-12-08T04:42:18.364Z,6.89
2017-12-08T04:42:44.482Z,6.85
2017-12-08T04:43:10.615Z,6.79
2017-12-08T04:43:36.736Z,6.92
2017-12-08T04:44:02.849Z,6.81
2017-12-08T04:44:28.965Z,6.88
2017-12-08T04:44:55.074Z,6.81
2017-12-08T04:45:21.235Z,6.88
2017-12-08T04:45:47.339Z,6.89
2017-12-08T04:46:13.447Z,6.81
2017-12-08T04:46:39.588Z,6.79
2017-12-08T04:47:05.705Z,6.78
2017-12-08T04:47:31.819Z,6.79
2017-12-08T04:47:57.929Z,6.79
2017-12-08T04:48:24.045Z,6.81
2017-12-08T04:48:50.154Z,6.79
2017-12-08T04:49:16.273Z,6.7
2017-12-08T04:49:42.391Z,6.74
2017-12-08T04:50:08.502Z,6.84
2017-12-08T04:50:34.612Z,6.82
2017-12-08T04:51:00.733Z,6.78
2017-12-08T04:51:26.849Z,6.77
2017-12-08T04:51:52.980Z,6.7
2017-12-08T04:52:19.100Z,6.79
2017-12-08T04:52:45.228Z,6.79
2017-12-08T04:53:11.347Z,6.75
2017-12-08T04:53:37.461Z,6.72
2017-12-08T04:54:03.595Z,6.7
2017-12-08T04:54:29.706Z,6.6
2017-12-08T04:54:55.823Z,6.77
2017-12-08T04:55:21.935Z,6.74
2017-12-08T04:55:48.053Z,6.62
2017-12-08T04:56:14.166Z,6.62
2017-12-08T04:56:40.276Z,6.56
2017-12-08T04:57:06.396Z,6.66
2017-12-08T04:57:32.530Z,6.62
2017-12-08T04:57:58.640Z,6.6
2017-12-08T04:58:24.759Z,6.52
2017-12-08T04:58:50.868Z,6.62
2017-12-08T04:59:16.985Z,6.49
2017-12-08T04:59:43.109Z,6.51
2017-12-08T05:00:09.217Z,6.38
2017-12-08T05:00:35.342Z,6.44
2017-12-08T05:01:01.464Z,6.45
2017-12-08T05:01:27.596Z,6.36
2017-12-08T05:01:53.717Z,6.35
2017-12-08T05:02:19.827Z,6.28
2017-12-08T05:02:45.958Z,6.22
2017-12-08T05:03:12.072Z,6.31
2017-12-08T05:03:38.208Z,6.31
2017-12-08T05:04:04.325Z,6.38
2017-12-08T05:04:30.435Z,6.36
2017-12-08T05:04:56.546Z,6.38
2017-12-08T05:05:22.682Z,6.35
2017-12-08T05:05:48.792Z,6.36
2017-12-08T05:06:14.912Z,6.3
2017-12-08T05:06:41.030Z,6.3
2017-12-08T05:07:07.143Z,6.3
2017-12-08T05:07:33.258Z,6.38
2017-12-08T05:07:59.370Z,6.26
2017-12-08T05:08:25.483Z,6.31
2017-12-08T05:08:51.594Z,6.38
2017-12-08T05:09:17.708Z,6.35
2017-12-08T05:09:43.825Z,6.35
2017-12-08T05:10:09.937Z,6.3
2017-12-08T05:10:36.047Z,6.33
2017-12-08T05:11:02.167Z,6.36
2017-12-08T05:11:28.301Z,6.35
2017-12-08T05:11:54.408Z,6.33
2017-12-08T05:12:20.527Z,6.33
2017-12-08T05:12:46.638Z,6.38
2017-12-08T05:13:12.764Z,6.31
2017-12-08T05:13:38.868Z,6.28
2017-12-08T05:14:04.981Z,6.31
2017-12-08T05:14:31.116Z,6.28
2017-12-08T05:14:57.230Z,6.27
2017-12-08T05:15:23.348Z,6.19
2017-12-08T05:15:49.456Z,6.33
2017-12-08T05:16:15.595Z,6.17
2017-12-08T05:16:41.710Z,6.12
2017-12-08T05:17:07.819Z,6.17
2017-12-08T05:17:33.938Z,6.2
2017-12-08T05:18:00.053Z,6.19
2017-12-08T05:18:26.166Z,6.22
2017-12-08T05:18:52.272Z,6.27
2017-12-08T05:19:18.392Z,6.31
2017-12-08T05:19:44.502Z,6.17
2017-12-08T05:20:10.614Z,6.12
2017-12-08T05:20:36.728Z,6.16
2017-12-08T05:21:02.842Z,6.2
2017-12-08T05:21:28.964Z,6.17
2017-12-08T05:21:55.088Z,6.14
2017-12-08T05:22:21.206Z,6.17
2017-12-08T05:22:47.316Z,6.08
2017-12-08T05:23:13.432Z,6.19
2017-12-08T05:23:39.553Z,6.16
2017-12-08T05:24:05.663Z,6.22
2017-12-08T05:24:31.776Z,6.28
2017-12-08T05:24:57.894Z,6.24
2017-12-08T05:25:24.008Z,6.2
2017-12-08T05:25:50.118Z,6.24
2017-12-08T05:26:16.232Z,6.28
2017-12-08T05:26:42.371Z,6.3
2017-12-08T05:27:08.478Z,6.28
2017-12-08T05:27:34.597Z,6.24
2017-12-08T05:28:00.708Z,6.35
2017-12-08T05:28:26.825Z,6.27
2017-12-08T05:28:52.942Z,6.3
2017-12-08T05:29:19.053Z,6.27
2017-12-08T05:29:45.184Z,6.3
2017-12-08T05:30:11.302Z,6.16
2017-12-08T05:30:37.415Z,6.17
2017-12-08T05:31:03.531Z,6.16
2017-12-08T05:31:29.645Z,6.26
2017-12-08T05:31:55.760Z,6.2
2017-12-08T05:32:21.873Z,6.3
2017-12-08T05:32:47.983Z,6.22
2017-12-08T05:33:14.099Z,6.14
2017-12-08T05:33:40.218Z,6.14
2017-12-08T05:34:06.334Z,6.19
2017-12-08T05:34:32.447Z,6.14
2017-12-08T05:34:58.550Z,6.19
2017-12-08T05:35:24.709Z,6.24
2017-12-08T05:35:50.880Z,6.24
2017-12-08T05:36:16.988Z,6.2
2017-12-08T05:36:43.135Z,6.19
2017-12-08T05:37:09.254Z,6.28
2017-12-08T05:37:35.368Z,6.12
2017-12-08T05:38:01.478Z,6.16
2017-12-08T05:38:27.597Z,6.17
2017-12-08T05:38:53.715Z,6.17
2017-12-08T05:39:19.836Z,6.16
2017-12-08T05:39:45.964Z,6.22
2017-12-08T05:40:12.075Z,6.19
2017-12-08T05:40:38.182Z,6.19
2017-12-08T05:41:04.299Z,6.07
2017-12-08T05:41:30.423Z,6.16
2017-12-08T05:41:56.548Z,6.16
2017-12-08T05:42:22.678Z,6.17
2017-12-08T05:42:48.795Z,6.17
2017-12-08T05:43:14.904Z,6.07
2017-12-08T05:43:41.018Z,6.17
2017-12-08T05:44:07.135Z,6.16
2017-12-08T05:44:33.251Z,6.11
2017-12-08T05:44:59.363Z,6.12
2017-12-08T05:45:25.501Z,6.2
2017-12-08T05:45:51.618Z,6.14
2017-12-08T05:46:17.748Z,6.16
2017-12-08T05:46:43.867Z,6.16
2017-12-08T05:47:09.977Z,6.19
2017-12-08T05:47:36.098Z,6.12
2017-12-08T05:48:02.211Z,6.16
2017-12-08T05:48:28.327Z,6.08
2017-12-08T05:48:54.437Z,6.09
2017-12-08T05:49:20.590Z,6.07